createdAt,value
2022-11-19T00:01:08.615Z,32.08
2022-11-19T00:03:36.637Z,32.05
2022-11-19T00:06:12.312Z,29.83
2022-11-19T00:08:39.255Z,30.92
2022-11-19T00:11:09.917Z,33.15
2022-11-19T00:13:37.755Z,27.55
2022-11-19T00:16:06.706Z,32.05
2022-11-19T00:18:33.558Z,29.05
2022-11-19T00:21:06.421Z,28.48
2022-11-19T00:23:33.128Z,32.75
2022-11-19T00:26:06.867Z,29.38
2022-11-19T00:28:33.544Z,32.92
2022-11-19T00:31:01.960Z,29.45
2022-11-19T00:35:57.122Z,24.98
2022-11-19T00:38:23.834Z,29.85
2022-11-19T00:40:50.414Z,27.13
2022-11-19T00:43:35.589Z,30.20
2022-11-19T00:46:02.186Z,28.80
2022-11-19T00:48:28.750Z,26.75
2022-11-19T00:50:55.330Z,28.48
2022-11-19T00:53:22.051Z,27.00
2022-11-19T00:55:48.618Z,28.33
2022-11-19T00:58:15.278Z,29.30
2022-11-19T01:00:41.835Z,29.02
2022-11-19T01:03:08.411Z,30.05
2022-11-19T01:05:34.941Z,30.75
2022-11-19T01:08:01.548Z,31.40
2022-11-19T01:10:28.100Z,27.42
2022-11-19T01:13:13.274Z,31.67
2022-11-19T01:15:39.799Z,28.65
2022-11-19T01:18:06.368Z,26.15
2022-11-19T01:20:32.942Z,28.92
2022-11-19T01:22:59.526Z,26.20
2022-11-19T01:25:26.079Z,27.55
2022-11-19T01:27:52.619Z,24.70
2022-11-19T01:30:19.459Z,26.67
2022-11-19T01:32:46.002Z,27.17
2022-11-19T01:35:12.703Z,29.65
2022-11-19T01:37:39.302Z,26.83
2022-11-19T01:40:06.419Z,24.17
2022-11-19T01:42:54.001Z,22.90
2022-11-19T01:45:27.279Z,24.60
2022-11-19T01:47:54.534Z,27.10
2022-11-19T01:50:22.232Z,27.83
2022-11-19T01:52:49.271Z,28.08
2022-11-19T01:55:17.443Z,28.58
2022-11-19T01:57:43.989Z,28.25
2022-11-19T02:00:11.082Z,32.83
2022-11-19T02:02:37.658Z,27.48
2022-11-19T02:05:04.674Z,24.42
2022-11-19T02:07:34.039Z,26.80
2022-11-19T02:10:02.183Z,28.00
2022-11-19T02:12:28.686Z,29.85
2022-11-19T02:14:55.433Z,24.02
2022-11-19T02:18:02.422Z,29.40
2022-11-19T02:20:43.466Z,27.67
2022-11-19T02:23:47.647Z,26.25
2022-11-19T02:26:39.307Z,26.08
2022-11-19T02:29:25.447Z,27.80
2022-11-19T02:32:05.677Z,26.83
2022-11-19T02:34:46.668Z,26.92
2022-11-19T02:37:30.731Z,25.08
2022-11-19T02:40:11.797Z,27.75
2022-11-19T02:43:05.301Z,27.85
2022-11-19T02:45:40.062Z,26.98
2022-11-19T02:48:10.023Z,25.27
2022-11-19T02:50:42.091Z,26.02
2022-11-19T02:53:08.697Z,23.48
2022-11-19T02:55:36.977Z,25.17
2022-11-19T02:58:10.574Z,26.63
2022-11-19T03:01:04.456Z,24.25
2022-11-19T03:03:50.130Z,27.05
2022-11-19T03:06:19.387Z,24.58
2022-11-19T03:08:46.750Z,21.80
2022-11-19T03:11:21.783Z,27.95
2022-11-19T03:14:19.342Z,31.73
2022-11-19T03:17:09.173Z,25.77
2022-11-19T03:19:43.517Z,26.25
2022-11-19T03:22:16.016Z,24.73
2022-11-19T03:24:46.351Z,25.13
2022-11-19T03:27:21.670Z,29.02
2022-11-19T03:29:50.901Z,24.80
2022-11-19T03:32:21.503Z,29.17
2022-11-19T03:34:51.081Z,24.88
2022-11-19T03:37:19.841Z,26.55
2022-11-19T03:39:47.810Z,25.92
2022-11-19T03:42:16.269Z,26.40
2022-11-19T03:47:13.787Z,28.67
2022-11-19T03:49:43.551Z,25.33
2022-11-19T03:52:19.006Z,25.00
2022-11-19T03:54:45.662Z,24.05
2022-11-19T03:57:15.005Z,28.55
2022-11-19T03:59:41.691Z,26.05
2022-11-19T04:02:09.887Z,27.52
2022-11-19T04:04:37.816Z,24.00
2022-11-19T04:07:09.223Z,26.17
2022-11-19T04:09:35.961Z,26.17
2022-11-19T04:12:03.080Z,25.00
2022-11-19T04:14:29.813Z,24.88
2022-11-19T04:16:56.735Z,24.38
2022-11-19T04:19:23.454Z,26.45
2022-11-19T04:21:50.671Z,25.23
2022-11-19T04:24:17.315Z,24.73
2022-11-19T04:26:43.885Z,25.48
2022-11-19T04:29:10.446Z,26.08
2022-11-19T04:31:37.026Z,28.17
2022-11-19T04:34:03.650Z,27.90
2022-11-19T04:36:30.182Z,27.30
2022-11-19T04:38:56.749Z,24.45
2022-11-19T04:41:23.427Z,26.30
2022-11-19T04:43:49.969Z,25.98
2022-11-19T04:46:16.525Z,30.52
2022-11-19T04:48:43.098Z,27.13
2022-11-19T04:51:09.668Z,25.92
2022-11-19T04:53:36.353Z,27.50
2022-11-19T04:56:02.979Z,20.77
2022-11-19T04:58:29.574Z,23.05
2022-11-19T05:00:56.163Z,25.55
2022-11-19T05:03:22.733Z,25.38
2022-11-19T05:05:49.888Z,23.40
2022-11-19T05:08:16.475Z,24.02
2022-11-19T05:10:44.058Z,23.48
2022-11-19T05:13:10.900Z,23.02
2022-11-19T05:15:37.441Z,27.38
2022-11-19T05:18:04.178Z,26.48
2022-11-19T05:20:30.816Z,24.63
2022-11-19T05:22:57.376Z,28.13
2022-11-19T05:25:23.915Z,24.08
2022-11-19T05:27:50.463Z,25.17
2022-11-19T05:30:17.331Z,24.92
2022-11-19T05:32:43.965Z,25.60
2022-11-19T05:35:10.875Z,23.13
2022-11-19T05:37:37.467Z,21.65
2022-11-19T05:40:04.601Z,24.52
2022-11-19T05:42:31.151Z,24.45
2022-11-19T05:44:57.693Z,22.35
2022-11-19T05:47:24.251Z,22.20
2022-11-19T05:49:50.803Z,19.25
2022-11-19T05:52:17.350Z,19.60
2022-11-19T05:54:43.894Z,19.80
2022-11-19T05:57:10.477Z,20.70
2022-11-19T05:59:43.487Z,21.50
2022-11-19T06:02:10.854Z,23.38
2022-11-19T06:04:37.475Z,23.17
2022-11-19T06:07:04.325Z,24.83
2022-11-19T06:09:30.983Z,24.40
2022-11-19T06:11:57.554Z,19.60
2022-11-19T06:14:25.485Z,22.27
2022-11-19T06:16:57.248Z,21.42
2022-11-19T06:19:24.439Z,26.90
2022-11-19T06:21:51.558Z,22.05
2022-11-19T06:24:18.883Z,22.08
2022-11-19T06:26:45.556Z,22.73
2022-11-19T06:29:14.511Z,25.13
2022-11-19T06:31:41.097Z,24.67
2022-11-19T06:34:07.680Z,21.75
2022-11-19T06:36:40.253Z,24.33
2022-11-19T06:39:08.975Z,28.42
2022-11-19T06:41:35.660Z,24.40
2022-11-19T06:44:02.460Z,22.88
2022-11-19T06:46:29.089Z,25.77
2022-11-19T06:48:55.623Z,24.83
2022-11-19T06:51:22.289Z,26.52
2022-11-19T06:53:48.835Z,24.25
2022-11-19T06:56:15.387Z,23.70
2022-11-19T06:58:42.302Z,24.65
2022-11-19T07:01:08.886Z,23.55
2022-11-19T07:03:35.847Z,23.45
2022-11-19T07:06:04.461Z,24.40
2022-11-19T07:08:34.463Z,22.02
2022-11-19T07:11:02.039Z,25.20
2022-11-19T07:13:51.420Z,24.38
2022-11-19T07:16:17.978Z,22.08
2022-11-19T07:18:44.519Z,24.10
2022-11-19T07:21:11.065Z,19.80
2022-11-19T07:23:37.595Z,21.85
2022-11-19T07:26:04.174Z,23.48
2022-11-19T07:28:30.796Z,25.83
2022-11-19T07:30:57.361Z,23.65
2022-11-19T07:33:23.898Z,22.50
2022-11-19T07:35:50.471Z,24.08
2022-11-19T07:38:17.085Z,23.95
2022-11-19T07:40:43.638Z,21.75
2022-11-19T07:43:10.162Z,24.52
2022-11-19T07:45:37.751Z,22.90
2022-11-19T07:48:04.465Z,27.13
2022-11-19T07:50:31.020Z,21.10
2022-11-19T07:53:00.613Z,19.90
2022-11-19T07:55:27.178Z,21.92
2022-11-19T07:57:54.161Z,19.45
2022-11-19T08:00:20.885Z,19.17
2022-11-19T08:02:47.434Z,19.90
2022-11-19T08:05:14.110Z,20.75
2022-11-19T08:07:41.420Z,19.55
2022-11-19T08:10:09.813Z,20.97
2022-11-19T08:15:03.291Z,22.45
2022-11-19T08:17:48.351Z,21.45
2022-11-19T08:20:17.215Z,19.15
2022-11-19T08:22:43.990Z,19.60
2022-11-19T08:25:10.659Z,19.20
2022-11-19T08:27:37.272Z,19.23
2022-11-19T08:30:04.623Z,19.73
2022-11-19T08:32:31.182Z,16.60
2022-11-19T08:34:57.775Z,20.92
2022-11-19T08:37:24.317Z,20.20
2022-11-19T08:39:50.866Z,18.13
2022-11-19T08:42:36.015Z,16.50
2022-11-19T08:45:02.575Z,18.92
2022-11-19T08:47:29.109Z,15.43
2022-11-19T08:49:55.690Z,17.50
2022-11-19T08:52:22.297Z,16.92
2022-11-19T08:54:48.865Z,20.30
2022-11-19T08:57:15.413Z,17.70
2022-11-19T08:59:42.001Z,17.10
2022-11-19T09:02:10.746Z,16.30
2022-11-19T09:04:37.300Z,16.58
2022-11-19T09:07:03.885Z,16.65
2022-11-19T09:09:31.039Z,17.80
2022-11-19T09:11:57.600Z,16.38
2022-11-19T09:14:24.204Z,15.48
2022-11-19T09:16:50.800Z,15.68
2022-11-19T09:19:17.367Z,14.95
2022-11-19T09:21:43.983Z,14.88
2022-11-19T09:24:10.596Z,14.75
2022-11-19T09:26:37.156Z,12.98
2022-11-19T09:29:03.747Z,16.85
2022-11-19T09:31:30.428Z,14.93
2022-11-19T09:33:56.966Z,12.07
2022-11-19T09:36:23.494Z,13.73
2022-11-19T09:38:50.112Z,16.02
2022-11-19T09:41:38.685Z,13.88
2022-11-19T09:44:24.084Z,14.05
2022-11-19T09:47:09.187Z,17.67
2022-11-19T09:50:11.042Z,13.60
2022-11-19T09:52:42.744Z,15.65
2022-11-19T09:55:15.662Z,14.63
2022-11-19T09:58:01.139Z,13.65
2022-11-19T10:00:30.602Z,13.48
2022-11-19T10:02:58.365Z,13.45
2022-11-19T10:05:30.767Z,15.60
2022-11-19T10:08:23.388Z,14.57
2022-11-19T10:11:21.388Z,17.15
2022-11-19T10:16:21.163Z,10.77
2022-11-19T10:18:53.800Z,13.73
2022-11-19T10:21:43.250Z,14.02
2022-11-19T10:24:22.835Z,11.30
2022-11-19T10:27:19.438Z,12.50
2022-11-19T10:29:46.586Z,12.73
2022-11-19T10:32:36.011Z,13.65
2022-11-19T10:35:08.601Z,12.98
2022-11-19T10:37:39.678Z,10.43
2022-11-19T10:40:13.153Z,9.93
2022-11-19T10:42:47.597Z,14.55
2022-11-19T10:45:19.944Z,10.73
2022-11-19T10:47:52.576Z,13.20
2022-11-19T10:50:21.863Z,9.07
2022-11-19T10:53:17.718Z,8.05
2022-11-19T10:55:54.007Z,9.50
2022-11-19T10:58:34.927Z,11.82
2022-11-19T11:01:03.736Z,7.93
2022-11-19T11:03:49.828Z,12.70
2022-11-19T11:06:17.281Z,9.15
2022-11-19T11:08:52.431Z,11.50
2022-11-19T11:11:23.121Z,10.07
2022-11-19T11:14:08.834Z,41.92
2022-11-19T11:16:53.507Z,22.15
2022-11-19T11:19:21.864Z,13.68
2022-11-19T11:21:52.481Z,11.13
2022-11-19T11:24:19.346Z,10.95
2022-11-19T11:26:45.908Z,13.80
2022-11-19T11:29:12.678Z,10.27
2022-11-19T11:31:44.749Z,9.48
2022-11-19T11:34:29.855Z,9.15
2022-11-19T11:36:56.812Z,8.73
2022-11-19T11:39:28.958Z,9.88
2022-11-19T11:42:17.686Z,8.70
2022-11-19T11:44:52.272Z,10.27
2022-11-19T11:47:36.053Z,10.38
2022-11-19T11:50:09.227Z,9.98
2022-11-19T11:52:45.464Z,9.82
2022-11-19T11:55:31.829Z,8.65
2022-11-19T11:58:01.099Z,9.30
2022-11-19T12:00:29.872Z,11.68
2022-11-19T12:03:11.436Z,12.95
2022-11-19T12:05:44.881Z,14.40
2022-11-19T12:08:25.579Z,12.70
2022-11-19T12:11:25.066Z,11.77
2022-11-19T12:14:05.460Z,10.55
2022-11-19T12:17:24.058Z,13.45
2022-11-19T12:20:02.473Z,16.00
2022-11-19T12:22:34.770Z,16.65
2022-11-19T12:25:30.459Z,31.77
2022-11-19T12:28:18.722Z,38.33
2022-11-19T12:33:40.547Z,14.68
2022-11-19T12:36:19.252Z,27.40
2022-11-19T12:38:56.425Z,14.60
2022-11-19T12:41:47.747Z,13.15
2022-11-19T12:44:23.326Z,12.20
2022-11-19T12:47:15.617Z,13.05
2022-11-19T12:49:48.118Z,12.90
2022-11-19T12:52:27.590Z,10.02
2022-11-19T12:55:12.779Z,10.80
2022-11-19T12:57:46.459Z,9.60
2022-11-19T13:00:19.292Z,12.35
2022-11-19T13:02:59.318Z,11.82
2022-11-19T13:05:47.040Z,11.35
2022-11-19T13:08:38.156Z,11.55
2022-11-19T13:11:04.669Z,11.07
2022-11-19T13:13:32.147Z,10.00
2022-11-19T13:16:09.639Z,10.10
2022-11-19T13:18:40.284Z,9.00
2022-11-19T13:21:17.238Z,11.77
2022-11-19T13:23:46.017Z,10.40
2022-11-19T13:26:32.178Z,9.20
2022-11-19T13:29:36.046Z,10.52
2022-11-19T13:32:12.516Z,9.98
2022-11-19T13:34:49.505Z,10.88
2022-11-19T13:37:22.800Z,9.40
2022-11-19T13:39:53.887Z,8.43
2022-11-19T13:42:39.487Z,9.05
2022-11-19T13:45:07.187Z,9.15
2022-11-19T13:48:00.842Z,10.60
2022-11-19T13:50:33.589Z,8.07
2022-11-19T13:53:13.726Z,8.40
2022-11-19T13:55:42.087Z,6.50
2022-11-19T13:58:14.835Z,9.40
2022-11-19T14:00:43.535Z,10.13
2022-11-19T14:03:22.507Z,8.30
2022-11-19T14:05:56.061Z,8.95
2022-11-19T14:08:54.042Z,8.10
2022-11-19T14:11:58.360Z,8.57
2022-11-19T14:14:58.562Z,8.23
2022-11-19T14:17:54.970Z,7.07
2022-11-19T14:20:50.702Z,10.32
2022-11-19T14:23:57.544Z,7.70
2022-11-19T14:26:42.296Z,8.07
2022-11-19T14:29:26.871Z,8.65
2022-11-19T14:32:16.383Z,7.95
2022-11-19T14:35:01.215Z,8.77
2022-11-19T14:37:36.714Z,9.73
2022-11-19T14:40:12.441Z,7.70
2022-11-19T14:43:26.617Z,6.97
2022-11-19T14:46:02.827Z,6.28
2022-11-19T14:48:30.557Z,7.63
2022-11-19T14:51:04.678Z,6.53
2022-11-19T14:53:31.411Z,8.52
2022-11-19T14:55:59.173Z,7.97
2022-11-19T14:58:26.038Z,6.32
2022-11-19T15:01:07.202Z,6.93
2022-11-19T15:03:34.551Z,6.60
2022-11-19T15:06:02.886Z,6.82
2022-11-19T15:08:42.035Z,9.25
2022-11-19T15:11:10.352Z,8.13
2022-11-19T15:13:40.839Z,6.55
2022-11-19T15:16:26.663Z,7.90
2022-11-19T15:19:18.982Z,8.60
2022-11-19T15:22:16.488Z,7.55
2022-11-19T15:24:59.030Z,6.93
2022-11-19T15:27:46.935Z,6.95
2022-11-19T15:30:50.503Z,6.53
2022-11-19T15:33:37.901Z,8.18
2022-11-19T15:36:07.139Z,8.98
2022-11-19T15:38:57.060Z,9.38
2022-11-19T15:41:26.226Z,7.47
2022-11-19T15:43:58.577Z,7.95
2022-11-19T15:46:49.762Z,6.68
2022-11-19T15:49:16.290Z,10.30
2022-11-19T15:51:56.944Z,8.13
2022-11-19T15:54:32.400Z,8.38
2022-11-19T15:57:02.904Z,11.77
2022-11-19T15:59:31.063Z,9.15
2022-11-19T16:01:59.702Z,9.32
2022-11-19T16:04:30.965Z,7.90
2022-11-19T16:06:57.582Z,7.80
2022-11-19T16:09:25.186Z,9.57
2022-11-19T16:12:10.491Z,11.15
2022-11-19T16:14:55.686Z,9.02
2022-11-19T16:17:43.150Z,7.70
2022-11-19T16:20:10.391Z,8.10
2022-11-19T16:23:00.913Z,9.73
2022-11-19T16:25:27.450Z,8.73
2022-11-19T16:27:57.168Z,9.48
2022-11-19T16:30:26.047Z,9.80
2022-11-19T16:32:56.294Z,8.45
2022-11-19T16:35:25.851Z,10.27
2022-11-19T16:37:53.551Z,10.20
2022-11-19T16:40:20.617Z,11.63
2022-11-19T16:42:57.806Z,10.98
2022-11-19T16:45:29.227Z,10.30
2022-11-19T16:47:57.787Z,10.30
2022-11-19T16:50:32.399Z,9.88
2022-11-19T16:53:00.534Z,9.13
2022-11-19T16:55:28.842Z,12.00
2022-11-19T16:58:03.250Z,9.98
2022-11-19T17:00:32.166Z,11.25
2022-11-19T17:02:58.801Z,10.05
2022-11-19T17:05:28.592Z,10.07
2022-11-19T17:08:20.582Z,9.73
2022-11-19T17:10:47.150Z,11.40
2022-11-19T17:13:19.621Z,12.52
2022-11-19T17:15:47.743Z,15.50
2022-11-19T17:18:17.287Z,11.77
2022-11-19T17:20:43.810Z,18.42
2022-11-19T17:23:15.867Z,19.85
2022-11-19T17:25:51.337Z,25.92
2022-11-19T17:28:36.549Z,12.05
2022-11-19T17:31:06.789Z,15.15
2022-11-19T17:33:36.564Z,13.18
2022-11-19T17:36:03.633Z,13.63
2022-11-19T17:38:31.412Z,12.75
2022-11-19T17:40:59.946Z,14.75
2022-11-19T17:43:53.012Z,11.85
2022-11-19T17:46:20.374Z,12.82
2022-11-19T17:48:48.318Z,12.88
2022-11-19T17:51:17.336Z,13.68
2022-11-19T17:53:44.179Z,16.98
2022-11-19T17:56:25.378Z,13.05
2022-11-19T17:58:52.285Z,16.58
2022-11-19T18:01:19.159Z,13.57
2022-11-19T18:03:46.814Z,14.67
2022-11-19T18:06:16.518Z,14.55
2022-11-19T18:08:43.558Z,11.48
2022-11-19T18:11:16.922Z,12.38
2022-11-19T18:13:44.963Z,12.32
2022-11-19T18:16:17.091Z,12.02
2022-11-19T18:18:43.723Z,13.88
2022-11-19T18:21:15.177Z,14.35
2022-11-19T18:23:43.069Z,15.25
2022-11-19T18:26:14.288Z,15.60
2022-11-19T18:28:44.972Z,17.42
2022-11-19T18:31:28.315Z,13.57
2022-11-19T18:33:56.142Z,14.98
2022-11-19T18:36:24.455Z,18.27
2022-11-19T18:41:21.502Z,18.77
2022-11-19T18:44:06.768Z,23.13
2022-11-19T18:46:33.311Z,21.33
2022-11-19T18:48:59.916Z,15.73
2022-11-19T18:51:27.768Z,13.93
2022-11-19T18:53:54.306Z,14.15
2022-11-19T18:56:20.902Z,15.82
2022-11-19T18:58:47.526Z,14.88
2022-11-19T19:01:16.275Z,16.83
2022-11-19T19:03:43.027Z,16.88
2022-11-19T19:06:09.952Z,18.50
2022-11-19T19:08:36.820Z,18.20
2022-11-19T19:11:26.214Z,17.83
2022-11-19T19:13:53.103Z,22.25
2022-11-19T19:16:19.777Z,33.47
2022-11-19T19:18:46.490Z,36.13
2022-11-19T19:21:14.303Z,29.95
2022-11-19T19:23:41.589Z,26.08
2022-11-19T19:26:09.242Z,22.52
2022-11-19T19:28:35.965Z,18.75
2022-11-19T19:31:02.705Z,20.77
2022-11-19T19:33:30.081Z,21.33
2022-11-19T19:35:56.995Z,20.88
2022-11-19T19:38:23.868Z,20.27
2022-11-19T19:40:50.522Z,16.02
2022-11-19T19:43:17.796Z,16.67
2022-11-19T19:45:44.476Z,12.10
2022-11-19T19:48:11.079Z,14.27
2022-11-19T19:50:37.685Z,16.58
2022-11-19T19:53:04.899Z,15.75
2022-11-19T19:55:31.446Z,15.43
2022-11-19T19:57:58.049Z,14.70
2022-11-19T20:00:24.706Z,10.88
2022-11-19T20:02:51.363Z,13.43
2022-11-19T20:05:17.919Z,15.18
2022-11-19T20:07:44.518Z,14.05
2022-11-19T20:10:11.141Z,11.57
2022-11-19T20:12:56.324Z,12.90
2022-11-19T20:15:22.895Z,12.90
2022-11-19T20:17:49.513Z,12.90
2022-11-19T20:20:16.161Z,13.82
2022-11-19T20:22:42.703Z,17.05
2022-11-19T20:25:09.278Z,16.38
2022-11-19T20:27:35.946Z,15.55
2022-11-19T20:30:03.539Z,15.15
2022-11-19T20:32:30.349Z,19.33
2022-11-19T20:34:56.891Z,26.05
2022-11-19T20:37:23.495Z,25.15
2022-11-19T20:39:50.059Z,26.75
2022-11-19T20:42:35.043Z,24.63
2022-11-19T20:45:01.915Z,24.00
2022-11-19T20:47:28.548Z,17.92
2022-11-19T20:49:55.103Z,16.80
2022-11-19T20:52:23.013Z,17.52
2022-11-19T20:54:51.190Z,15.60
2022-11-19T20:57:18.878Z,17.58
2022-11-19T20:59:45.518Z,16.25
2022-11-19T21:02:12.219Z,18.83
2022-11-19T21:04:38.754Z,20.92
2022-11-19T21:07:05.919Z,20.48
2022-11-19T21:09:33.523Z,14.45
2022-11-19T21:12:00.184Z,13.00
2022-11-19T21:14:26.867Z,15.02
2022-11-19T21:16:53.427Z,13.90
2022-11-19T21:19:20.315Z,16.00
2022-11-19T21:21:47.141Z,14.07
2022-11-19T21:24:13.837Z,19.85
2022-11-19T21:26:40.633Z,20.85
2022-11-19T21:29:07.865Z,21.15
2022-11-19T21:31:39.745Z,21.08
2022-11-19T21:34:08.128Z,17.02
2022-11-19T21:39:01.497Z,13.70
2022-11-19T21:41:28.055Z,12.13
2022-11-19T21:43:54.610Z,12.95
2022-11-19T21:46:21.238Z,13.15
2022-11-19T21:48:47.791Z,12.43
2022-11-19T21:51:14.355Z,12.85
2022-11-19T21:53:40.895Z,12.45
2022-11-19T21:56:07.838Z,14.15
2022-11-19T21:58:34.378Z,12.43
2022-11-19T22:01:02.201Z,12.80
2022-11-19T22:03:31.256Z,12.57
2022-11-19T22:06:02.556Z,12.70
2022-11-19T22:08:35.606Z,12.98
2022-11-19T22:11:25.388Z,13.10
2022-11-19T22:13:53.164Z,12.55
2022-11-19T22:16:20.410Z,11.05
2022-11-19T22:18:46.979Z,11.63
2022-11-19T22:21:13.786Z,12.07
2022-11-19T22:23:40.971Z,15.35
2022-11-19T22:26:09.296Z,19.02
2022-11-19T22:31:02.477Z,36.95
2022-11-19T22:33:39.609Z,114.65
2022-11-19T22:36:10.086Z,48.40
2022-11-19T22:38:38.243Z,24.63
2022-11-19T22:41:13.464Z,20.58
2022-11-19T22:43:41.470Z,21.35
2022-11-19T22:46:09.535Z,22.48
2022-11-19T22:48:36.881Z,28.60
2022-11-19T22:51:23.465Z,24.70
2022-11-19T22:53:51.303Z,19.52
2022-11-19T22:56:23.877Z,19.23
2022-11-19T22:58:50.999Z,18.23
2022-11-19T23:01:19.586Z,29.65
2022-11-19T23:03:46.320Z,45.28
2022-11-19T23:06:13.278Z,29.80
2022-11-19T23:08:40.126Z,24.38
2022-11-19T23:11:07.369Z,20.50
2022-11-19T23:13:36.330Z,23.40
2022-11-19T23:16:13.070Z,21.45
2022-11-19T23:18:42.429Z,16.30
2022-11-19T23:21:11.661Z,15.75
2022-11-19T23:23:38.262Z,21.65
2022-11-19T23:26:06.641Z,18.60
2022-11-19T23:28:34.491Z,16.30
2022-11-19T23:31:10.666Z,18.52
2022-11-19T23:33:37.383Z,15.18
2022-11-19T23:36:06.362Z,15.18
2022-11-19T23:38:34.658Z,12.70
2022-11-19T23:43:28.658Z,12.38
2022-11-19T23:45:57.630Z,13.47
2022-11-19T23:48:24.223Z,13.82
2022-11-19T23:50:50.809Z,12.88
2022-11-19T23:53:17.352Z,12.45
2022-11-19T23:55:47.629Z,13.00
2022-11-19T23:58:14.230Z,14.27
